createdAt,value
2023-05-04T00:00:10.324Z,7.40
2023-05-04T00:02:40.708Z,7.95
2023-05-04T00:05:10.359Z,7.15
2023-05-04T00:07:39.044Z,7.43
2023-05-04T00:10:10.085Z,8.00
2023-05-04T00:12:39.185Z,8.15
2023-05-04T00:15:09.383Z,8.90
2023-05-04T00:17:38.118Z,8.93
2023-05-04T00:20:08.333Z,7.65
2023-05-04T00:22:37.085Z,8.05
2023-05-04T00:25:06.553Z,8.50
2023-05-04T00:27:36.750Z,8.43
2023-05-04T00:30:09.538Z,7.78
2023-05-04T00:32:38.485Z,9.65
2023-05-04T00:35:08.298Z,8.98
2023-05-04T00:37:37.063Z,8.90
2023-05-04T00:40:09.878Z,8.90
2023-05-04T00:42:39.983Z,8.27
2023-05-04T00:45:09.535Z,8.40
2023-05-04T00:47:38.300Z,8.98
2023-05-04T00:50:09.106Z,10.00
2023-05-04T00:52:38.600Z,9.02
2023-05-04T00:55:07.761Z,10.05
2023-05-04T00:57:36.592Z,9.45
2023-05-04T01:00:10.733Z,8.70
2023-05-04T01:02:39.504Z,9.65
2023-05-04T01:05:10.051Z,9.15
2023-05-04T01:07:44.251Z,9.80
2023-05-04T01:10:18.795Z,8.48
2023-05-04T01:12:52.968Z,9.18
2023-05-04T01:15:24.676Z,9.23
2023-05-04T01:17:53.469Z,9.52
2023-05-04T01:20:22.403Z,9.52
2023-05-04T01:22:52.660Z,10.25
2023-05-04T01:25:28.712Z,9.25
2023-05-04T01:28:03.597Z,9.45
2023-05-04T01:30:38.500Z,9.50
2023-05-04T01:33:08.131Z,9.52
2023-05-04T01:35:39.376Z,9.40
2023-05-04T01:38:09.611Z,8.60
2023-05-04T01:40:38.366Z,9.02
2023-05-04T01:43:07.151Z,8.60
2023-05-04T01:45:35.898Z,8.68
2023-05-04T01:48:05.022Z,8.43
2023-05-04T01:50:33.989Z,9.00
2023-05-04T01:53:04.198Z,9.52
2023-05-04T01:55:35.765Z,8.85
2023-05-04T01:58:04.625Z,10.15
2023-05-04T02:00:33.646Z,9.40
2023-05-04T02:03:04.594Z,8.75
2023-05-04T02:05:36.786Z,9.07
2023-05-04T02:08:05.717Z,8.80
2023-05-04T02:10:36.343Z,9.75
2023-05-04T02:13:05.238Z,10.32
2023-05-04T02:15:34.032Z,8.88
2023-05-04T02:18:05.014Z,8.65
2023-05-04T02:20:33.831Z,8.68
2023-05-04T02:23:02.601Z,9.05
2023-05-04T02:25:33.689Z,8.23
2023-05-04T02:28:03.834Z,8.73
2023-05-04T02:30:35.797Z,9.10
2023-05-04T02:33:04.698Z,8.63
2023-05-04T02:35:36.281Z,8.15
2023-05-04T02:38:08.014Z,8.77
2023-05-04T02:40:36.759Z,7.75
2023-05-04T02:43:06.812Z,9.13
2023-05-04T02:45:37.075Z,8.63
2023-05-04T02:48:06.666Z,8.80
2023-05-04T02:50:35.489Z,8.00
2023-05-04T02:53:04.212Z,8.63
2023-05-04T02:55:32.914Z,8.18
2023-05-04T02:58:01.855Z,9.20
2023-05-04T03:00:32.147Z,8.88
2023-05-04T03:03:01.270Z,9.02
2023-05-04T03:05:30.043Z,7.93
2023-05-04T03:07:58.774Z,7.88
2023-05-04T03:10:27.711Z,8.45
2023-05-04T03:12:56.914Z,8.15
2023-05-04T03:15:25.945Z,8.68
2023-05-04T03:17:56.071Z,8.63
2023-05-04T03:20:26.208Z,7.97
2023-05-04T03:22:55.079Z,7.97
2023-05-04T03:25:26.233Z,8.02
2023-05-04T03:27:57.698Z,9.20
2023-05-04T03:30:26.538Z,8.85
2023-05-04T03:33:00.289Z,8.27
2023-05-04T03:35:29.673Z,8.27
2023-05-04T03:37:59.653Z,7.90
2023-05-04T03:40:28.733Z,7.38
2023-05-04T03:42:59.817Z,7.85
2023-05-04T03:45:29.392Z,7.88
2023-05-04T03:48:02.299Z,7.65
2023-05-04T03:50:31.882Z,7.82
2023-05-04T03:53:00.738Z,9.48
2023-05-04T03:55:30.482Z,8.63
2023-05-04T03:57:59.318Z,7.85
2023-05-04T04:00:30.741Z,8.38
2023-05-04T04:03:11.145Z,8.18
2023-05-04T04:05:40.526Z,7.65
2023-05-04T04:08:09.485Z,8.18
2023-05-04T04:10:39.484Z,8.77
2023-05-04T04:13:08.259Z,7.55
2023-05-04T04:15:36.973Z,7.75
2023-05-04T04:18:05.912Z,7.80
2023-05-04T04:20:36.193Z,8.75
2023-05-04T04:23:05.181Z,7.85
2023-05-04T04:25:33.962Z,14.10
2023-05-04T04:28:02.769Z,20.77
2023-05-04T04:30:31.560Z,8.55
2023-05-04T04:33:00.506Z,8.07
2023-05-04T04:35:29.264Z,7.82
2023-05-04T04:38:00.655Z,7.90
2023-05-04T04:40:31.692Z,8.73
2023-05-04T04:43:03.194Z,8.38
2023-05-04T04:45:33.714Z,8.07
2023-05-04T04:48:06.246Z,8.63
2023-05-04T04:50:34.969Z,8.52
2023-05-04T04:53:05.086Z,8.45
2023-05-04T04:55:34.697Z,9.25
2023-05-04T04:58:03.505Z,9.05
2023-05-04T05:00:32.300Z,8.88
2023-05-04T05:03:01.227Z,9.23
2023-05-04T05:05:31.676Z,8.70
2023-05-04T05:08:00.711Z,8.20
2023-05-04T05:10:30.908Z,8.52
2023-05-04T05:12:59.744Z,8.15
2023-05-04T05:15:31.351Z,9.15
2023-05-04T05:18:00.161Z,9.10
2023-05-04T05:20:29.129Z,8.32
2023-05-04T05:22:57.893Z,8.43
2023-05-04T05:25:27.116Z,9.27
2023-05-04T05:27:57.288Z,8.00
2023-05-04T05:30:28.293Z,8.55
2023-05-04T05:32:57.489Z,8.43
2023-05-04T05:35:26.323Z,9.00
2023-05-04T05:37:55.135Z,8.18
2023-05-04T05:40:23.931Z,7.70
2023-05-04T05:42:55.287Z,8.65
2023-05-04T05:45:28.426Z,8.95
2023-05-04T05:47:57.152Z,8.48
2023-05-04T05:50:26.372Z,8.15
2023-05-04T05:57:26.203Z,8.45
2023-05-04T05:59:55.395Z,8.05
2023-05-04T06:02:29.197Z,8.68
2023-05-04T06:04:58.296Z,9.27
2023-05-04T06:07:27.184Z,8.25
2023-05-04T06:09:56.574Z,10.73
2023-05-04T06:12:33.677Z,8.48
2023-05-04T06:15:03.010Z,8.05
2023-05-04T06:17:36.568Z,8.37
2023-05-04T06:20:06.387Z,8.80
2023-05-04T06:22:37.507Z,10.27
2023-05-04T06:25:08.170Z,8.85
2023-05-04T06:27:37.513Z,8.88
2023-05-04T06:30:08.144Z,8.30
2023-05-04T06:32:38.805Z,8.63
2023-05-04T06:35:10.641Z,8.20
2023-05-04T06:37:39.497Z,9.65
2023-05-04T06:45:06.341Z,8.00
2023-05-04T06:47:38.382Z,8.30
2023-05-04T06:50:12.057Z,7.97
2023-05-04T06:52:42.659Z,9.27
2023-05-04T06:55:18.975Z,7.93
2023-05-04T06:57:48.147Z,8.45
2023-05-04T07:00:17.653Z,8.65
2023-05-04T07:02:48.387Z,8.10
2023-05-04T07:05:17.739Z,8.25
2023-05-04T07:07:46.926Z,8.20
2023-05-04T07:10:19.640Z,8.07
2023-05-04T07:12:51.147Z,7.55
2023-05-04T07:15:22.560Z,8.57
2023-05-04T07:17:52.838Z,8.13
2023-05-04T07:20:25.056Z,7.68
2023-05-04T07:22:56.585Z,7.13
2023-05-04T07:25:25.739Z,10.73
2023-05-04T07:27:56.790Z,7.90
2023-05-04T07:30:26.098Z,7.28
2023-05-04T07:32:58.758Z,7.93
2023-05-04T07:35:27.510Z,7.50
2023-05-04T07:37:58.543Z,8.27
2023-05-04T07:40:27.550Z,7.47
2023-05-04T07:42:56.492Z,8.88
2023-05-04T07:45:27.927Z,6.72
2023-05-04T07:47:58.112Z,7.68
2023-05-04T07:50:29.004Z,7.85
2023-05-04T07:53:00.892Z,8.27
2023-05-04T07:55:32.322Z,7.75
2023-05-04T07:58:01.350Z,7.85
2023-05-04T08:00:30.531Z,7.00
2023-05-04T08:03:00.767Z,7.82
2023-05-04T08:05:29.542Z,7.70
2023-05-04T08:07:58.315Z,7.78
2023-05-04T08:10:27.698Z,7.88
2023-05-04T08:12:57.031Z,7.75
2023-05-04T08:15:25.807Z,7.45
2023-05-04T08:17:54.919Z,7.35
2023-05-04T08:20:25.186Z,7.38
2023-05-04T08:22:54.192Z,6.90
2023-05-04T08:25:23.589Z,7.95
2023-05-04T08:27:52.376Z,7.60
2023-05-04T08:30:21.284Z,7.97
2023-05-04T08:32:51.220Z,6.72
2023-05-04T08:35:20.035Z,8.18
2023-05-04T08:37:50.633Z,7.03
2023-05-04T08:40:20.987Z,7.78
2023-05-04T08:42:51.361Z,6.40
2023-05-04T08:45:20.607Z,6.70
2023-05-04T08:47:49.571Z,7.60
2023-05-04T08:50:19.589Z,6.10
2023-05-04T08:52:49.014Z,6.22
2023-05-04T08:55:20.085Z,6.45
2023-05-04T09:00:21.648Z,7.47
2023-05-04T09:02:51.959Z,7.32
2023-05-04T09:05:41.794Z,6.40
2023-05-04T09:08:24.616Z,6.63
2023-05-04T09:10:56.149Z,7.68
2023-05-04T09:13:25.707Z,6.63
2023-05-04T09:15:59.138Z,7.32
2023-05-04T09:18:38.113Z,6.60
2023-05-04T09:21:07.629Z,7.28
2023-05-04T09:23:47.955Z,6.38
2023-05-04T09:26:28.847Z,5.90
2023-05-04T09:29:13.474Z,5.88
2023-05-04T09:31:47.554Z,5.68
2023-05-04T09:34:17.136Z,6.40
2023-05-04T09:36:46.744Z,6.20
2023-05-04T09:39:17.205Z,6.15
2023-05-04T09:41:48.449Z,5.70
2023-05-04T09:44:22.623Z,6.07
2023-05-04T09:46:56.571Z,7.25
2023-05-04T09:49:33.173Z,5.63
2023-05-04T09:52:03.758Z,6.20
2023-05-04T09:54:36.446Z,5.90
2023-05-04T09:57:13.265Z,6.20
2023-05-04T09:59:43.984Z,6.43
2023-05-04T10:02:22.428Z,5.75
2023-05-04T10:04:53.142Z,5.90
2023-05-04T10:07:22.086Z,6.55
2023-05-04T10:09:51.951Z,5.05
2023-05-04T10:12:24.220Z,5.70
2023-05-04T10:14:53.475Z,6.45
2023-05-04T10:22:33.962Z,6.60
2023-05-04T10:25:35.545Z,5.78
2023-05-04T10:28:19.464Z,5.85
2023-05-04T10:30:58.106Z,5.45
2023-05-04T10:33:40.124Z,5.45
2023-05-04T10:36:10.623Z,5.43
2023-05-04T10:38:41.414Z,5.88
2023-05-04T10:41:17.106Z,5.32
2023-05-04T10:43:49.262Z,5.53
2023-05-04T10:46:19.530Z,5.65
2023-05-04T10:48:48.488Z,4.90
2023-05-04T10:51:21.277Z,4.50
2023-05-04T10:53:50.963Z,5.18
2023-05-04T10:56:25.004Z,4.65
2023-05-04T10:58:56.465Z,4.47
2023-05-04T11:01:27.539Z,4.88
2023-05-04T11:03:56.616Z,4.80
2023-05-04T11:06:26.398Z,4.65
2023-05-04T11:09:05.324Z,5.75
2023-05-04T11:11:38.033Z,6.05
2023-05-04T11:14:08.100Z,5.25
2023-05-04T11:16:36.922Z,5.38
2023-05-04T11:19:09.705Z,4.72
2023-05-04T11:21:38.522Z,4.70
2023-05-04T11:24:07.746Z,5.18
2023-05-04T11:26:48.745Z,5.20
2023-05-04T11:29:20.381Z,4.78
2023-05-04T11:31:55.961Z,4.82
2023-05-04T11:34:24.779Z,5.00
2023-05-04T11:36:54.650Z,5.28
2023-05-04T11:39:23.448Z,5.93
2023-05-04T11:41:52.336Z,4.57
2023-05-04T11:44:23.792Z,4.07
2023-05-04T11:46:56.945Z,4.53
2023-05-04T11:49:26.940Z,5.68
2023-05-04T11:52:07.050Z,5.55
2023-05-04T11:54:36.996Z,4.03
2023-05-04T11:57:05.832Z,3.95
2023-05-04T11:59:36.073Z,4.82
2023-05-04T12:02:04.977Z,3.72
2023-05-04T12:04:34.026Z,3.20
2023-05-04T12:07:07.788Z,4.10
2023-05-04T12:09:45.896Z,4.40
2023-05-04T12:12:17.322Z,4.82
2023-05-04T12:14:51.954Z,5.40
2023-05-04T12:17:20.977Z,5.03
2023-05-04T12:19:51.505Z,5.70
2023-05-04T12:22:28.492Z,5.68
2023-05-04T12:24:58.917Z,5.22
2023-05-04T12:27:28.903Z,5.50
2023-05-04T12:29:59.455Z,5.75
2023-05-04T12:32:28.255Z,6.20
2023-05-04T12:34:57.113Z,6.20
2023-05-04T12:37:25.910Z,6.05
2023-05-04T12:39:54.656Z,5.47
2023-05-04T12:42:24.229Z,5.13
2023-05-04T12:44:53.873Z,5.60
2023-05-04T12:47:25.053Z,5.50
2023-05-04T12:49:55.898Z,6.40
2023-05-04T12:52:24.806Z,6.50
2023-05-04T12:54:53.581Z,6.35
2023-05-04T12:57:22.417Z,6.90
2023-05-04T12:59:51.178Z,7.78
2023-05-04T13:02:19.921Z,6.72
2023-05-04T13:04:50.237Z,6.93
2023-05-04T13:07:21.182Z,7.55
2023-05-04T13:09:49.951Z,7.43
2023-05-04T13:13:44.185Z,7.55
2023-05-04T13:16:45.189Z,6.82
2023-05-04T13:19:14.438Z,8.50
2023-05-04T13:21:47.956Z,7.80
2023-05-04T13:24:17.466Z,9.25
2023-05-04T13:26:46.749Z,7.88
2023-05-04T13:29:15.867Z,7.85
2023-05-04T13:31:45.373Z,9.27
2023-05-04T13:34:17.044Z,9.45
2023-05-04T13:36:50.905Z,8.48
2023-05-04T13:39:22.700Z,7.65
2023-05-04T13:41:51.541Z,7.90
2023-05-04T13:44:21.237Z,8.65
2023-05-04T13:46:50.409Z,9.15
2023-05-04T13:49:22.168Z,8.75
2023-05-04T13:51:54.345Z,7.82
2023-05-04T13:54:23.584Z,9.45
2023-05-04T13:56:52.984Z,9.55
2023-05-04T13:59:21.858Z,8.68
2023-05-04T14:01:50.699Z,8.48
2023-05-04T14:04:19.810Z,9.00
2023-05-04T14:06:50.235Z,9.25
2023-05-04T14:09:20.826Z,10.80
2023-05-04T14:11:51.900Z,9.88
2023-05-04T14:14:21.859Z,10.73
2023-05-04T14:16:52.529Z,10.70
2023-05-04T14:19:21.343Z,9.07
2023-05-04T14:21:50.076Z,10.23
2023-05-04T14:24:20.322Z,9.57
2023-05-04T14:26:49.155Z,10.32
2023-05-04T14:29:17.913Z,9.60
2023-05-04T14:31:46.644Z,9.88
2023-05-04T14:34:15.618Z,10.75
2023-05-04T14:36:44.470Z,10.45
2023-05-04T14:39:13.321Z,11.57
2023-05-04T14:41:43.725Z,9.50
2023-05-04T14:44:12.749Z,11.23
2023-05-04T14:46:41.587Z,10.13
2023-05-04T14:49:12.549Z,10.77
2023-05-04T14:51:48.153Z,10.88
2023-05-04T14:54:16.946Z,11.15
2023-05-04T14:56:52.062Z,10.13
2023-05-04T14:59:25.460Z,9.88
2023-05-04T15:01:55.022Z,11.15
2023-05-04T15:04:24.467Z,11.68
2023-05-04T15:06:53.409Z,10.93
2023-05-04T15:09:22.130Z,9.95
2023-05-04T15:11:52.942Z,10.15
2023-05-04T15:14:22.578Z,11.27
2023-05-04T15:16:51.326Z,10.13
2023-05-04T15:19:21.336Z,10.43
2023-05-04T15:21:50.651Z,10.60
2023-05-04T15:24:19.466Z,10.10
2023-05-04T15:26:48.623Z,10.32
2023-05-04T15:29:18.851Z,10.07
2023-05-04T15:31:47.639Z,9.75
2023-05-04T15:34:18.493Z,10.70
2023-05-04T15:36:47.678Z,12.18
2023-05-04T15:39:18.791Z,15.45
2023-05-04T15:41:49.835Z,12.57
2023-05-04T15:44:21.033Z,11.20
2023-05-04T15:46:50.050Z,10.85
2023-05-04T15:49:19.298Z,10.35
2023-05-04T15:51:48.078Z,10.10
2023-05-04T15:54:16.832Z,10.48
2023-05-04T15:56:45.650Z,9.10
2023-05-04T15:59:16.932Z,9.07
2023-05-04T16:01:49.512Z,10.23
2023-05-04T16:04:20.885Z,9.70
2023-05-04T16:06:54.253Z,9.70
2023-05-04T16:09:22.963Z,10.35
2023-05-04T16:11:51.914Z,9.18
2023-05-04T16:14:20.666Z,10.35
2023-05-04T16:16:50.903Z,9.82
2023-05-04T16:20:44.987Z,10.65
2023-05-04T16:23:47.098Z,10.95
2023-05-04T16:26:16.084Z,10.15
2023-05-04T16:28:45.446Z,9.68
2023-05-04T16:31:14.508Z,8.75
2023-05-04T16:33:47.400Z,9.70
2023-05-04T16:36:16.728Z,15.20
2023-05-04T16:38:45.935Z,12.35
2023-05-04T16:41:15.101Z,10.05
2023-05-04T16:43:47.479Z,10.65
2023-05-04T16:46:16.423Z,9.88
2023-05-04T16:48:46.779Z,10.10
2023-05-04T16:51:15.681Z,10.98
2023-05-04T16:53:44.661Z,11.48
2023-05-04T16:56:18.384Z,10.73
2023-05-04T16:58:47.576Z,10.32
2023-05-04T17:01:16.708Z,10.95
2023-05-04T17:03:47.048Z,9.77
2023-05-04T17:06:16.053Z,10.00
2023-05-04T17:08:45.550Z,10.18
2023-05-04T17:11:16.774Z,11.02
2023-05-04T17:13:45.510Z,11.00
2023-05-04T17:16:14.364Z,10.95
2023-05-04T17:18:43.149Z,13.88
2023-05-04T17:26:08.230Z,9.55
2023-05-04T17:28:37.321Z,9.10
2023-05-04T17:31:11.534Z,10.55
2023-05-04T17:33:41.164Z,11.43
2023-05-04T17:36:12.207Z,10.75
2023-05-04T17:38:43.958Z,9.95
2023-05-04T17:41:14.619Z,8.18
2023-05-04T17:43:43.885Z,9.90
2023-05-04T17:46:12.812Z,8.82
2023-05-04T17:48:42.069Z,9.57
2023-05-04T17:51:11.139Z,9.23
2023-05-04T17:53:40.436Z,9.95
2023-05-04T17:56:09.572Z,9.02
2023-05-04T17:58:43.235Z,10.45
2023-05-04T18:01:12.582Z,9.88
2023-05-04T18:03:41.526Z,29.00
2023-05-04T18:06:10.418Z,21.65
2023-05-04T18:08:39.139Z,15.02
2023-05-04T18:11:07.932Z,10.75
2023-05-04T18:13:36.648Z,10.48
2023-05-04T18:16:07.303Z,10.77
2023-05-04T18:18:36.089Z,10.10
2023-05-04T18:21:05.185Z,9.63
2023-05-04T18:23:34.169Z,10.65
2023-05-04T18:26:02.962Z,8.90
2023-05-04T18:28:32.230Z,8.88
2023-05-04T18:31:01.275Z,10.27
2023-05-04T18:33:32.910Z,9.15
2023-05-04T18:36:01.743Z,9.65
2023-05-04T18:38:31.447Z,8.68
2023-05-04T18:41:00.384Z,10.48
2023-05-04T18:43:29.026Z,10.93
2023-05-04T18:45:57.852Z,9.82
2023-05-04T18:48:26.575Z,9.82
2023-05-04T18:52:20.633Z,9.60
2023-05-04T18:56:05.504Z,8.25
2023-05-04T18:58:34.681Z,8.02
2023-05-04T19:01:03.827Z,8.07
2023-05-04T19:03:35.142Z,9.52
2023-05-04T19:06:04.284Z,8.07
2023-05-04T19:08:35.282Z,7.90
2023-05-04T19:11:05.792Z,9.55
2023-05-04T19:13:34.811Z,9.07
2023-05-04T19:16:03.747Z,8.57
2023-05-04T19:18:35.340Z,7.90
2023-05-04T19:21:06.739Z,9.77
2023-05-04T19:23:35.726Z,9.80
2023-05-04T19:26:06.159Z,8.05
2023-05-04T19:28:41.063Z,8.70
2023-05-04T19:31:10.167Z,9.77
2023-05-04T19:33:48.084Z,10.52
2023-05-04T19:36:21.834Z,8.60
2023-05-04T19:38:54.092Z,9.82
2023-05-04T19:41:24.431Z,10.07
2023-05-04T19:49:54.384Z,8.55
2023-05-04T19:52:23.215Z,8.55
2023-05-04T19:54:53.818Z,8.85
2023-05-04T19:57:23.988Z,9.73
2023-05-04T19:59:52.965Z,9.52
2023-05-04T20:02:24.308Z,8.77
2023-05-04T20:04:56.002Z,9.38
2023-05-04T20:07:24.911Z,10.25
2023-05-04T20:09:53.808Z,9.45
2023-05-04T20:12:24.270Z,20.55
2023-05-04T20:14:53.014Z,22.85
2023-05-04T20:17:24.789Z,11.00
2023-05-04T20:21:09.008Z,11.15
2023-05-04T20:23:40.231Z,9.98
2023-05-04T20:26:09.230Z,9.73
2023-05-04T20:28:38.839Z,11.35
2023-05-04T20:31:09.401Z,8.88
2023-05-04T20:33:38.395Z,9.93
2023-05-04T20:36:11.856Z,8.82
2023-05-04T20:38:41.934Z,9.18
2023-05-04T20:41:13.100Z,8.67
2023-05-04T20:43:42.027Z,10.27
2023-05-04T20:46:10.890Z,9.45
2023-05-04T20:48:40.885Z,9.18
2023-05-04T20:51:15.230Z,9.23
2023-05-04T20:53:44.579Z,8.75
2023-05-04T20:56:14.726Z,8.00
2023-05-04T20:58:43.750Z,7.05
2023-05-04T21:01:14.995Z,8.02
2023-05-04T21:03:44.833Z,8.23
2023-05-04T21:06:15.046Z,9.48
2023-05-04T21:08:43.809Z,7.80
2023-05-04T21:11:15.112Z,8.30
2023-05-04T21:13:43.857Z,7.63
2023-05-04T21:16:12.806Z,8.55
2023-05-04T21:18:41.645Z,7.97
2023-05-04T21:21:10.746Z,8.90
2023-05-04T21:23:41.363Z,7.20
2023-05-04T21:26:10.164Z,8.65
2023-05-04T21:28:39.058Z,8.63
2023-05-04T21:31:09.129Z,7.47
2023-05-04T21:38:31.772Z,8.27
2023-05-04T21:41:11.067Z,7.90
2023-05-04T21:43:40.100Z,8.98
2023-05-04T21:46:12.172Z,7.85
2023-05-04T21:48:41.644Z,7.85
2023-05-04T21:51:10.805Z,8.48
2023-05-04T21:53:40.071Z,8.60
2023-05-04T21:56:12.230Z,8.35
2023-05-04T21:58:42.158Z,7.77
2023-05-04T22:01:16.229Z,7.38
2023-05-04T22:03:45.665Z,8.07
2023-05-04T22:06:14.717Z,7.28
2023-05-04T22:08:44.886Z,8.00
2023-05-04T22:11:17.783Z,7.57
2023-05-04T22:13:46.900Z,8.18
2023-05-04T22:16:20.147Z,7.15
2023-05-04T22:18:49.609Z,7.90
2023-05-04T22:21:21.155Z,7.03
2023-05-04T22:23:50.172Z,8.40
2023-05-04T22:26:20.432Z,7.22
2023-05-04T22:28:50.029Z,9.05
2023-05-04T22:31:19.109Z,8.13
2023-05-04T22:33:50.494Z,9.90
2023-05-04T22:36:19.505Z,8.85
2023-05-04T22:38:48.628Z,9.80
2023-05-04T22:41:17.671Z,8.32
2023-05-04T22:43:48.189Z,8.65
2023-05-04T22:46:17.724Z,9.20
2023-05-04T22:48:47.965Z,8.30
2023-05-04T22:51:17.596Z,8.98
2023-05-04T22:53:46.857Z,9.35
2023-05-04T22:56:16.450Z,8.77
2023-05-04T22:58:47.719Z,10.55
2023-05-04T23:01:16.601Z,8.77
2023-05-04T23:03:45.853Z,8.50
2023-05-04T23:06:15.342Z,10.60
2023-05-04T23:08:45.366Z,9.45
2023-05-04T23:11:14.170Z,9.82
2023-05-04T23:13:42.977Z,9.82
2023-05-04T23:16:13.043Z,9.82
2023-05-04T23:18:43.961Z,9.07
2023-05-04T23:22:37.654Z,9.02
2023-05-04T23:25:09.076Z,9.57
2023-05-04T23:27:39.654Z,10.00
2023-05-04T23:30:10.426Z,9.57
2023-05-04T23:32:41.290Z,10.07
2023-05-04T23:35:11.223Z,9.50
2023-05-04T23:37:40.968Z,9.23
2023-05-04T23:40:11.312Z,9.88
2023-05-04T23:42:41.155Z,10.45
2023-05-04T23:45:11.787Z,9.77
2023-05-04T23:47:42.994Z,10.07
2023-05-04T23:50:13.048Z,11.73
2023-05-04T23:52:43.506Z,9.88
2023-05-04T23:55:12.659Z,10.27
2023-05-04T23:57:44.605Z,10.23
